Time;durP1;ratioP1;P1;durP2;ratioP2;P2;SDS_P1;SDS_P2;PMS_P1;PMS_P2;Temp;Humidity;BMP_temperature;BMP_pressure;BME280_temperature;BME280_humidity;BME280_pressure;Samples;Min_cycle;Max_cycle;Signal;HPM_P1;HPM_P2
2023/06/04 00:00:08;;;;;;;4.35;1.80;;;;;;;;;;5034064;28;20050;-62
2023/06/04 00:02:38;;;;;;;2.78;1.70;;;;;;;;;;5029403;28;20107;-62
2023/06/04 00:05:07;;;;;;;3.58;1.73;;;;;;;;;;5029100;28;20517;-60
2023/06/04 00:07:35;;;;;;;3.47;1.65;;;;;;;;;;5029756;28;20564;-62
2023/06/04 00:10:05;;;;;;;4.85;1.70;;;;;;;;;;5030085;28;20053;-60
2023/06/04 00:12:33;;;;;;;4.60;2.10;;;;;;;;;;5031640;28;20054;-60
2023/06/04 00:15:02;;;;;;;3.67;1.67;;;;;;;;;;5048935;28;20049;-63
2023/06/04 00:17:30;;;;;;;3.83;2.00;;;;;;;;;;5045155;28;20049;-61
2023/06/04 00:20:00;;;;;;;3.25;1.38;;;;;;;;;;5029463;28;20045;-63
2023/06/04 00:22:28;;;;;;;11.43;1.60;;;;;;;;;;5018993;28;20049;-60
2023/06/04 00:24:57;;;;;;;2.78;1.33;;;;;;;;;;5029569;28;20050;-61
2023/06/04 00:27:25;;;;;;;2.78;1.30;;;;;;;;;;5029672;28;20049;-61
2023/06/04 00:29:53;;;;;;;3.15;1.60;;;;;;;;;;5029643;28;20057;-61
2023/06/04 00:32:22;;;;;;;2.50;1.23;;;;;;;;;;5030523;28;20116;-61
2023/06/04 00:34:52;;;;;;;3.40;1.30;;;;;;;;;;5027478;28;20046;-60
2023/06/04 00:37:22;;;;;;;2.28;1.23;;;;;;;;;;5030979;28;20045;-60
2023/06/04 00:39:50;;;;;;;5.85;1.58;;;;;;;;;;5033525;28;20419;-59
2023/06/04 00:42:19;;;;;;;2.45;1.23;;;;;;;;;;5032673;28;20081;-60
2023/06/04 00:44:48;;;;;;;5.53;2.03;;;;;;;;;;5032855;28;20127;-60
2023/06/04 00:47:16;;;;;;;2.65;1.30;;;;;;;;;;5033358;28;20077;-60
2023/06/04 00:49:45;;;;;;;3.67;1.52;;;;;;;;;;5032871;28;20494;-63
2023/06/04 00:52:14;;;;;;;1.27;0.95;;;;;;;;;;5032963;28;20081;-61
2023/06/04 00:54:44;;;;;;;2.25;1.40;;;;;;;;;;5032609;28;20080;-63
2023/06/04 00:57:12;;;;;;;2.03;1.25;;;;;;;;;;5033085;28;20053;-60
2023/06/04 00:59:42;;;;;;;5.57;2.05;;;;;;;;;;5033243;28;20116;-60
2023/06/04 01:02:13;;;;;;;1.55;1.42;;;;;;;;;;5045225;22;20040;-62
2023/06/04 01:04:44;;;;;;;2.42;1.23;;;;;;;;;;5035450;28;20092;-63
2023/06/04 01:07:14;;;;;;;1.63;1.15;;;;;;;;;;5035789;28;20103;-64
2023/06/04 01:09:45;;;;;;;2.38;1.33;;;;;;;;;;5035762;28;20045;-64
2023/06/04 01:12:14;;;;;;;3.58;1.35;;;;;;;;;;5035584;28;20045;-63
2023/06/04 01:14:42;;;;;;;2.17;1.20;;;;;;;;;;5036630;28;20055;-64
2023/06/04 01:17:13;;;;;;;2.45;1.23;;;;;;;;;;5035375;28;20049;-63
2023/06/04 01:19:56;;;;;;;4.72;1.63;;;;;;;;;;5035502;28;20049;-64
2023/06/04 01:22:31;;;;;;;6.18;1.42;;;;;;;;;;5036592;28;20157;-63
2023/06/04 01:25:03;;;;;;;3.22;1.30;;;;;;;;;;5036178;28;20057;-62
2023/06/04 01:27:32;;;;;;;3.85;1.45;;;;;;;;;;5035432;28;20053;-63
2023/06/04 01:30:01;;;;;;;2.30;1.73;;;;;;;;;;5036308;28;20049;-63
2023/06/04 01:32:30;;;;;;;1.92;1.23;;;;;;;;;;5033515;28;20045;-63
2023/06/04 01:34:59;;;;;;;2.10;1.25;;;;;;;;;;5038197;28;20055;-63
2023/06/04 01:37:27;;;;;;;3.15;1.65;;;;;;;;;;5032416;28;20121;-65
2023/06/04 01:39:55;;;;;;;5.30;1.40;;;;;;;;;;5032357;28;20057;-63
2023/06/04 01:42:25;;;;;;;3.03;1.30;;;;;;;;;;5027707;28;20041;-64
2023/06/04 01:44:54;;;;;;;6.32;1.25;;;;;;;;;;5031842;28;20053;-63
2023/06/04 01:47:22;;;;;;;3.17;1.13;;;;;;;;;;5018949;28;20042;-63
2023/06/04 01:49:50;;;;;;;2.83;1.17;;;;;;;;;;5032152;28;20045;-62
2023/06/04 01:52:20;;;;;;;3.75;1.13;;;;;;;;;;5022720;28;20045;-63
2023/06/04 01:54:52;;;;;;;3.20;1.25;;;;;;;;;;5031534;28;20498;-63
2023/06/04 01:57:21;;;;;;;2.38;1.38;;;;;;;;;;5028873;28;20049;-63
2023/06/04 01:59:51;;;;;;;2.70;1.65;;;;;;;;;;5041638;28;20049;-63
2023/06/04 02:02:20;;;;;;;2.75;1.58;;;;;;;;;;5031853;28;20050;-63
2023/06/04 02:04:51;;;;;;;2.05;1.02;;;;;;;;;;5030916;28;20052;-64
2023/06/04 02:07:21;;;;;;;2.67;1.33;;;;;;;;;;5032085;28;20049;-64
2023/06/04 02:09:49;;;;;;;2.60;1.17;;;;;;;;;;5031812;28;20049;-63
2023/06/04 02:12:19;;;;;;;1.85;1.00;;;;;;;;;;5031400;28;20045;-63
2023/06/04 02:14:47;;;;;;;4.13;1.77;;;;;;;;;;5031473;28;20049;-63
2023/06/04 02:17:17;;;;;;;1.70;1.20;;;;;;;;;;5031676;28;20049;-63
2023/06/04 02:19:49;;;;;;;3.13;1.50;;;;;;;;;;5026730;28;20053;-64
2023/06/04 02:22:18;;;;;;;1.65;1.15;;;;;;;;;;5028999;28;20050;-63
2023/06/04 02:24:47;;;;;;;2.13;1.23;;;;;;;;;;5031363;28;20057;-63
2023/06/04 02:27:16;;;;;;;2.58;1.50;;;;;;;;;;5031362;28;20069;-64
2023/06/04 02:29:45;;;;;;;3.25;1.20;;;;;;;;;;5031228;28;20391;-64
2023/06/04 02:32:13;;;;;;;1.48;0.93;;;;;;;;;;5030612;28;20103;-65
2023/06/04 02:34:43;;;;;;;2.60;1.15;;;;;;;;;;5036361;28;20087;-63
2023/06/04 02:37:11;;;;;;;4.32;1.17;;;;;;;;;;5031504;28;20053;-64
2023/06/04 02:39:39;;;;;;;2.88;1.20;;;;;;;;;;5031272;28;20103;-64
2023/06/04 02:42:08;;;;;;;2.88;1.10;;;;;;;;;;5030914;28;20049;-64
2023/06/04 02:44:37;;;;;;;1.92;1.30;;;;;;;;;;5030501;28;20046;-64
2023/06/04 02:47:06;;;;;;;3.53;1.55;;;;;;;;;;5031253;28;20041;-63
2023/06/04 02:49:34;;;;;;;6.75;1.88;;;;;;;;;;5030466;28;20077;-65
2023/06/04 02:52:07;;;;;;;3.60;1.52;;;;;;;;;;5022734;28;20080;-64
2023/06/04 02:54:35;;;;;;;3.13;1.50;;;;;;;;;;5029884;28;20123;-63
2023/06/04 02:57:04;;;;;;;2.72;1.25;;;;;;;;;;5017853;28;20049;-64
2023/06/04 02:59:32;;;;;;;1.95;1.27;;;;;;;;;;5030775;28;20391;-63
2023/06/04 03:02:01;;;;;;;2.45;1.15;;;;;;;;;;5024892;28;20056;-63
2023/06/04 03:04:33;;;;;;;2.65;1.27;;;;;;;;;;5030448;28;20057;-63
2023/06/04 03:07:02;;;;;;;2.13;1.17;;;;;;;;;;5030504;28;20485;-63
2023/06/04 03:09:33;;;;;;;3.75;1.67;;;;;;;;;;5030442;28;20049;-64
2023/06/04 03:12:02;;;;;;;1.65;1.20;;;;;;;;;;5027114;28;20076;-64
2023/06/04 03:14:33;;;;;;;1.83;0.98;;;;;;;;;;5030756;28;20045;-63
2023/06/04 03:17:07;;;;;;;2.67;1.75;;;;;;;;;;5030346;28;20049;-64
2023/06/04 03:19:36;;;;;;;2.22;1.25;;;;;;;;;;5030289;28;20057;-63
2023/06/04 03:22:06;;;;;;;4.53;1.48;;;;;;;;;;5029340;28;20369;-64
2023/06/04 03:24:37;;;;;;;2.80;1.70;;;;;;;;;;5029968;28;20076;-64
2023/06/04 03:27:07;;;;;;;3.65;1.30;;;;;;;;;;5030743;28;20048;-64
2023/06/04 03:29:35;;;;;;;2.65;1.30;;;;;;;;;;5030228;28;20052;-63
2023/06/04 03:32:04;;;;;;;3.60;1.58;;;;;;;;;;5030209;28;20474;-64
2023/06/04 03:34:32;;;;;;;3.42;1.45;;;;;;;;;;5036261;28;20045;-63
2023/06/04 03:37:03;;;;;;;1.88;1.13;;;;;;;;;;5030051;28;20057;-64
2023/06/04 03:39:31;;;;;;;3.72;1.50;;;;;;;;;;5030379;28;20049;-63
2023/06/04 03:42:01;;;;;;;1.95;1.48;;;;;;;;;;5019762;28;20109;-64
2023/06/04 03:44:30;;;;;;;6.75;1.90;;;;;;;;;;5030395;28;20494;-64
2023/06/04 03:46:58;;;;;;;4.43;1.40;;;;;;;;;;5029213;28;20095;-63
2023/06/04 03:49:27;;;;;;;4.50;1.33;;;;;;;;;;5030465;28;20049;-63
2023/06/04 03:51:56;;;;;;;4.32;1.60;;;;;;;;;;5022189;28;20073;-63
2023/06/04 03:54:24;;;;;;;5.78;1.23;;;;;;;;;;5028247;28;20516;-64
2023/06/04 03:56:52;;;;;;;2.10;1.23;;;;;;;;;;5029208;28;20049;-63
2023/06/04 03:59:22;;;;;;;3.00;1.52;;;;;;;;;;5030163;28;20050;-64
2023/06/04 04:01:50;;;;;;;5.18;1.13;;;;;;;;;;5030383;28;20085;-63
2023/06/04 04:04:19;;;;;;;3.78;1.75;;;;;;;;;;5030032;28;20057;-63
2023/06/04 04:06:47;;;;;;;2.97;1.30;;;;;;;;;;5031506;28;20076;-63
2023/06/04 04:09:16;;;;;;;7.60;1.17;;;;;;;;;;5034105;28;20108;-62
2023/06/04 04:11:44;;;;;;;6.30;1.60;;;;;;;;;;5033780;28;20550;-64
2023/06/04 04:14:13;;;;;;;3.55;1.45;;;;;;;;;;5034337;28;20119;-62
2023/06/04 04:16:42;;;;;;;1.80;1.13;;;;;;;;;;5033339;28;20080;-63
2023/06/04 04:19:11;;;;;;;6.45;1.60;;;;;;;;;;5033669;28;20042;-64
2023/06/04 04:21:40;;;;;;;2.80;1.20;;;;;;;;;;5026671;28;20056;-64
2023/06/04 04:24:09;;;;;;;1.95;1.08;;;;;;;;;;5033570;28;20103;-63
2023/06/04 04:26:37;;;;;;;5.07;1.33;;;;;;;;;;5033491;28;20084;-63
2023/06/04 04:29:08;;;;;;;2.22;1.08;;;;;;;;;;5034357;28;20050;-63
2023/06/04 04:31:38;;;;;;;2.97;1.58;;;;;;;;;;5033197;28;20055;-64
2023/06/04 04:34:09;;;;;;;1.67;1.13;;;;;;;;;;5039338;28;20038;-63
2023/06/04 04:36:40;;;;;;;2.67;1.55;;;;;;;;;;5032901;28;20084;-63
2023/06/04 04:39:08;;;;;;;3.33;1.42;;;;;;;;;;5033995;28;20052;-63
2023/06/04 04:41:37;;;;;;;3.72;1.80;;;;;;;;;;5025111;28;20038;-64
2023/06/04 04:44:06;;;;;;;7.47;1.40;;;;;;;;;;5032635;28;20426;-65
2023/06/04 04:46:34;;;;;;;2.72;1.30;;;;;;;;;;5032754;28;20453;-64
2023/06/04 04:49:02;;;;;;;3.88;1.40;;;;;;;;;;5027517;28;20056;-63
2023/06/04 04:51:32;;;;;;;3.35;1.20;;;;;;;;;;5026589;28;20042;-63
2023/06/04 04:54:01;;;;;;;2.53;1.08;;;;;;;;;;5033539;28;20049;-63
2023/06/04 04:56:29;;;;;;;2.58;1.45;;;;;;;;;;5032463;28;20081;-64
2023/06/04 04:58:58;;;;;;;2.10;1.20;;;;;;;;;;5032924;28;20084;-63
2023/06/04 05:01:26;;;;;;;3.38;1.40;;;;;;;;;;5032937;28;20045;-63
2023/06/04 05:03:55;;;;;;;2.17;1.00;;;;;;;;;;5033384;28;20069;-64
2023/06/04 05:06:23;;;;;;;1.73;1.00;;;;;;;;;;5032275;28;20524;-63
2023/06/04 05:08:53;;;;;;;1.80;1.08;;;;;;;;;;5032808;28;20080;-64
2023/06/04 05:11:22;;;;;;;1.00;0.70;;;;;;;;;;5030811;28;20072;-63
2023/06/04 05:13:50;;;;;;;2.53;1.08;;;;;;;;;;5032824;28;20049;-64
2023/06/04 05:16:20;;;;;;;4.25;1.55;;;;;;;;;;5032425;28;20083;-63
2023/06/04 05:18:51;;;;;;;3.60;1.35;;;;;;;;;;5033077;28;20045;-64
2023/06/04 05:21:20;;;;;;;2.70;1.20;;;;;;;;;;5026853;28;20050;-64
2023/06/04 05:23:48;;;;;;;6.07;0.98;;;;;;;;;;5027781;28;20592;-64
2023/06/04 05:26:22;;;;;;;2.38;1.02;;;;;;;;;;5031749;28;20045;-63
2023/06/04 05:28:51;;;;;;;7.20;1.43;;;;;;;;;;5032863;28;20487;-64
2023/06/04 05:31:20;;;;;;;2.47;1.35;;;;;;;;;;5032338;28;20145;-65
2023/06/04 05:33:49;;;;;;;3.15;1.40;;;;;;;;;;5037515;28;20049;-63
2023/06/04 05:36:17;;;;;;;2.75;1.40;;;;;;;;;;5031492;28;20453;-64
2023/06/04 05:38:45;;;;;;;2.92;1.08;;;;;;;;;;5032088;28;20076;-64
2023/06/04 05:41:14;;;;;;;2.03;1.13;;;;;;;;;;5028142;28;20078;-64
2023/06/04 05:43:44;;;;;;;3.47;1.38;;;;;;;;;;5029354;28;20070;-63
2023/06/04 05:46:13;;;;;;;2.15;1.13;;;;;;;;;;5031539;28;20503;-64
2023/06/04 05:48:41;;;;;;;2.63;1.20;;;;;;;;;;5025708;28;20414;-64
2023/06/04 05:51:10;;;;;;;2.42;0.98;;;;;;;;;;5028007;28;20046;-63
2023/06/04 05:53:38;;;;;;;1.40;0.93;;;;;;;;;;5030888;28;20054;-63
2023/06/04 05:56:07;;;;;;;3.67;1.35;;;;;;;;;;5031627;28;20137;-63
2023/06/04 05:58:36;;;;;;;3.85;1.40;;;;;;;;;;5031603;28;20041;-64
2023/06/04 06:01:06;;;;;;;2.10;1.13;;;;;;;;;;5029229;28;20552;-64
2023/06/04 06:03:36;;;;;;;3.28;1.35;;;;;;;;;;5018884;28;20057;-64
2023/06/04 06:06:05;;;;;;;3.38;1.30;;;;;;;;;;5031790;28;20080;-63
2023/06/04 06:08:34;;;;;;;4.63;1.60;;;;;;;;;;5032069;28;20049;-63
2023/06/04 06:11:04;;;;;;;2.28;1.20;;;;;;;;;;5031443;28;20049;-65
2023/06/04 06:13:35;;;;;;;3.55;1.08;;;;;;;;;;5031628;28;20482;-64
2023/06/04 06:16:04;;;;;;;2.42;1.20;;;;;;;;;;5031304;28;20068;-64
2023/06/04 06:18:34;;;;;;;2.85;1.55;;;;;;;;;;5032072;28;20080;-63
2023/06/04 06:21:02;;;;;;;2.33;1.48;;;;;;;;;;5027968;28;20099;-63
2023/06/04 06:23:31;;;;;;;4.35;1.40;;;;;;;;;;5023056;28;20057;-64
2023/06/04 06:26:01;;;;;;;1.65;1.02;;;;;;;;;;5031086;28;20056;-64
2023/06/04 06:28:30;;;;;;;2.25;0.85;;;;;;;;;;5030995;28;20423;-63
2023/06/04 06:30:58;;;;;;;1.75;1.02;;;;;;;;;;5030089;28;20092;-64
2023/06/04 06:33:26;;;;;;;2.00;1.40;;;;;;;;;;5029196;28;20045;-64
2023/06/04 06:35:56;;;;;;;2.40;1.45;;;;;;;;;;5030813;28;20492;-64
2023/06/04 06:38:25;;;;;;;2.17;1.08;;;;;;;;;;5030923;28;20544;-65
2023/06/04 06:40:53;;;;;;;3.85;1.20;;;;;;;;;;5030505;28;20049;-64
2023/06/04 06:43:22;;;;;;;6.82;1.27;;;;;;;;;;5025137;28;20454;-63
2023/06/04 06:45:50;;;;;;;8.43;1.30;;;;;;;;;;5031121;28;20064;-63
2023/06/04 06:48:19;;;;;;;2.83;1.05;;;;;;;;;;5030501;28;20490;-65
2023/06/04 06:50:47;;;;;;;2.10;1.15;;;;;;;;;;5031228;28;20100;-65
2023/06/04 06:53:17;;;;;;;7.63;1.35;;;;;;;;;;5025962;28;20107;-64
2023/06/04 06:55:45;;;;;;;4.50;1.15;;;;;;;;;;5030625;28;20457;-65
2023/06/04 06:58:13;;;;;;;3.17;1.17;;;;;;;;;;5031049;28;20119;-64
2023/06/04 07:00:42;;;;;;;2.50;1.27;;;;;;;;;;5031174;28;20049;-65
2023/06/04 07:03:10;;;;;;;2.50;1.45;;;;;;;;;;5027830;28;20056;-65
2023/06/04 07:05:39;;;;;;;4.38;1.58;;;;;;;;;;5030298;28;20045;-65
2023/06/04 07:08:07;;;;;;;5.93;1.30;;;;;;;;;;5030664;28;20072;-64
2023/06/04 07:10:37;;;;;;;2.35;1.33;;;;;;;;;;5031039;28;20107;-64
2023/06/04 07:13:05;;;;;;;2.63;0.93;;;;;;;;;;5030269;28;20049;-64
2023/06/04 07:15:33;;;;;;;2.72;1.60;;;;;;;;;;5030340;28;20073;-65
2023/06/04 07:18:02;;;;;;;2.35;1.15;;;;;;;;;;5030512;28;20099;-65
2023/06/04 07:20:30;;;;;;;3.70;1.40;;;;;;;;;;5030979;28;20053;-64
2023/06/04 07:22:59;;;;;;;2.30;1.00;;;;;;;;;;5030670;28;20538;-65
2023/06/04 07:25:27;;;;;;;2.63;1.23;;;;;;;;;;5029993;28;20041;-65
2023/06/04 07:27:58;;;;;;;2.83;1.48;;;;;;;;;;5030227;28;20049;-64
2023/06/04 07:30:26;;;;;;;2.13;0.98;;;;;;;;;;5029989;28;20077;-66
2023/06/04 07:32:55;;;;;;;3.97;1.30;;;;;;;;;;5021354;28;20049;-65
2023/06/04 07:35:23;;;;;;;3.33;1.17;;;;;;;;;;5035235;28;20049;-63
2023/06/04 07:37:52;;;;;;;3.80;1.20;;;;;;;;;;5030408;28;20077;-64
2023/06/04 07:40:20;;;;;;;1.73;1.00;;;;;;;;;;5029448;28;20073;-65
2023/06/04 07:42:49;;;;;;;3.92;1.65;;;;;;;;;;5030151;28;20104;-65
2023/06/04 07:45:18;;;;;;;2.88;1.17;;;;;;;;;;5029949;28;20045;-65
2023/06/04 07:47:47;;;;;;;1.33;1.02;;;;;;;;;;5030410;28;20115;-65
2023/06/04 07:50:15;;;;;;;3.10;1.25;;;;;;;;;;5030357;28;20046;-64
2023/06/04 07:52:44;;;;;;;2.17;1.08;;;;;;;;;;5029562;28;20502;-66
2023/06/04 07:55:12;;;;;;;1.50;0.93;;;;;;;;;;5026196;28;20061;-65
2023/06/04 07:57:41;;;;;;;1.58;1.08;;;;;;;;;;5030144;28;20099;-64
2023/06/04 08:00:11;;;;;;;2.75;1.40;;;;;;;;;;5030298;28;20049;-64
2023/06/04 08:02:41;;;;;;;2.00;1.33;;;;;;;;;;5029889;28;20058;-65
2023/06/04 08:05:10;;;;;;;2.13;0.95;;;;;;;;;;5029449;28;20037;-66
2023/06/04 08:07:38;;;;;;;2.05;1.30;;;;;;;;;;5029636;28;20282;-65
2023/06/04 08:10:07;;;;;;;3.03;1.55;;;;;;;;;;5030032;28;20107;-66
2023/06/04 08:12:35;;;;;;;3.78;0.95;;;;;;;;;;5030062;28;20045;-65
2023/06/04 08:15:04;;;;;;;1.73;1.13;;;;;;;;;;5029756;28;20045;-65
2023/06/04 08:17:33;;;;;;;2.13;1.08;;;;;;;;;;5029696;28;20060;-66
2023/06/04 08:20:06;;;;;;;3.15;1.27;;;;;;;;;;5028295;28;20085;-65
2023/06/04 08:22:34;;;;;;;5.72;1.40;;;;;;;;;;5030056;28;20149;-65
2023/06/04 08:25:03;;;;;;;3.35;1.30;;;;;;;;;;5029081;28;20049;-65
2023/06/04 08:27:31;;;;;;;2.70;0.93;;;;;;;;;;5029934;28;20084;-65
2023/06/04 08:30:03;;;;;;;2.00;1.20;;;;;;;;;;5029858;28;20461;-65
2023/06/04 08:32:31;;;;;;;6.35;1.52;;;;;;;;;;5029758;28;20077;-65
2023/06/04 08:34:59;;;;;;;3.08;1.40;;;;;;;;;;5035159;28;20088;-65
2023/06/04 08:37:29;;;;;;;3.10;1.50;;;;;;;;;;5029915;28;20525;-66
2023/06/04 08:39:58;;;;;;;3.28;1.08;;;;;;;;;;5029837;28;20053;-64
2023/06/04 08:42:29;;;;;;;2.33;1.20;;;;;;;;;;5024014;28;20099;-66
2023/06/04 08:44:58;;;;;;;4.00;1.40;;;;;;;;;;5028884;28;20600;-66
2023/06/04 08:47:27;;;;;;;2.53;1.23;;;;;;;;;;5029709;28;20045;-65
2023/06/04 08:49:56;;;;;;;3.30;1.30;;;;;;;;;;5029527;28;20132;-66
2023/06/04 08:52:25;;;;;;;2.33;1.20;;;;;;;;;;5028261;28;20564;-65
2023/06/04 08:54:56;;;;;;;2.10;1.02;;;;;;;;;;5033001;28;20045;-65
2023/06/04 08:57:25;;;;;;;3.63;1.20;;;;;;;;;;5033186;28;20049;-65
2023/06/04 08:59:53;;;;;;;1.85;0.73;;;;;;;;;;5033582;28;20057;-65
2023/06/04 09:02:22;;;;;;;2.00;0.93;;;;;;;;;;5032874;28;20466;-64
2023/06/04 09:04:51;;;;;;;3.22;1.15;;;;;;;;;;5032542;28;20160;-66
2023/06/04 09:07:20;;;;;;;1.30;0.77;;;;;;;;;;5033083;28;20546;-66
2023/06/04 09:09:48;;;;;;;4.25;1.05;;;;;;;;;;5032790;28;20115;-66
2023/06/04 09:12:33;;;;;;;2.22;1.63;;;;;;;;;;5032610;28;20501;-66
2023/06/04 09:15:02;;;;;;;1.65;1.35;;;;;;;;;;5020058;28;20560;-65
2023/06/04 09:17:30;;;;;;;4.45;1.30;;;;;;;;;;5032714;28;20084;-65
2023/06/04 09:19:59;;;;;;;1.50;1.13;;;;;;;;;;5032582;28;20053;-66
2023/06/04 09:22:34;;;;;;;1.80;0.90;;;;;;;;;;5023271;28;20209;-65
2023/06/04 09:25:03;;;;;;;1.40;0.85;;;;;;;;;;5032485;28;20076;-63
2023/06/04 09:27:40;;;;;;;3.42;1.20;;;;;;;;;;5032589;28;20340;-64
2023/06/04 09:30:09;;;;;;;1.65;1.00;;;;;;;;;;5032538;28;20053;-64
2023/06/04 09:32:38;;;;;;;3.95;1.25;;;;;;;;;;5025193;28;20053;-64
2023/06/04 09:35:11;;;;;;;3.10;1.00;;;;;;;;;;5038106;28;20045;-65
2023/06/04 09:37:40;;;;;;;1.20;0.70;;;;;;;;;;5032572;28;20045;-64
2023/06/04 09:40:09;;;;;;;2.45;1.02;;;;;;;;;;5032553;28;20114;-66
2023/06/04 09:42:46;;;;;;;0.95;0.85;;;;;;;;;;5027764;28;20221;-66
2023/06/04 09:45:14;;;;;;;4.88;0.93;;;;;;;;;;5031444;28;20054;-66
2023/06/04 09:47:43;;;;;;;2.10;0.90;;;;;;;;;;5029068;28;20054;-66
2023/06/04 09:50:12;;;;;;;1.05;0.82;;;;;;;;;;5032352;28;20050;-66
2023/06/04 09:52:41;;;;;;;2.35;1.17;;;;;;;;;;5030276;28;20050;-67
2023/06/04 09:55:20;;;;;;;3.10;1.73;;;;;;;;;;5031317;28;20508;-66
2023/06/04 09:57:50;;;;;;;4.50;1.10;;;;;;;;;;5032592;28;20068;-65
2023/06/04 10:00:20;;;;;;;2.70;1.00;;;;;;;;;;5031943;28;20454;-66
2023/06/04 10:02:50;;;;;;;1.60;0.88;;;;;;;;;;5018462;28;20426;-67
2023/06/04 10:05:21;;;;;;;3.78;0.80;;;;;;;;;;5030837;28;20139;-66
2023/06/04 10:07:52;;;;;;;1.98;0.98;;;;;;;;;;5032059;28;20129;-65
2023/06/04 10:10:22;;;;;;;1.45;1.00;;;;;;;;;;5032062;28;20053;-65
2023/06/04 10:12:52;;;;;;;1.77;0.90;;;;;;;;;;5031885;28;20780;-66
2023/06/04 10:15:22;;;;;;;2.50;1.10;;;;;;;;;;5021353;28;20065;-67
2023/06/04 10:17:51;;;;;;;1.75;0.90;;;;;;;;;;5029231;28;20470;-67
2023/06/04 10:20:20;;;;;;;2.42;1.10;;;;;;;;;;5031286;28;20061;-67
2023/06/04 10:22:49;;;;;;;2.92;1.10;;;;;;;;;;5031791;28;20053;-66
2023/06/04 10:25:18;;;;;;;2.72;0.80;;;;;;;;;;5031334;28;20042;-67
2023/06/04 10:27:47;;;;;;;1.70;1.20;;;;;;;;;;5031392;28;20045;-67
2023/06/04 10:30:17;;;;;;;2.35;1.08;;;;;;;;;;5030912;28;20081;-67
2023/06/04 10:32:46;;;;;;;3.38;1.25;;;;;;;;;;5025220;28;20049;-67
2023/06/04 10:35:15;;;;;;;4.50;1.20;;;;;;;;;;5036762;28;20050;-67
2023/06/04 10:37:44;;;;;;;2.28;1.10;;;;;;;;;;5031814;28;20321;-67
2023/06/04 10:40:12;;;;;;;5.85;1.48;;;;;;;;;;5031286;28;20099;-67
2023/06/04 10:42:42;;;;;;;6.65;1.25;;;;;;;;;;5030956;28;20054;-67
2023/06/04 10:45:11;;;;;;;2.13;0.90;;;;;;;;;;5030234;28;20046;-66
2023/06/04 10:47:43;;;;;;;2.20;1.00;;;;;;;;;;5031346;28;20077;-66
2023/06/04 10:50:12;;;;;;;1.98;1.00;;;;;;;;;;5031042;28;20060;-66
2023/06/04 10:52:52;;;;;;;3.42;1.23;;;;;;;;;;5030927;28;20111;-66
2023/06/04 10:55:20;;;;;;;1.70;1.20;;;;;;;;;;5030199;28;20037;-66
2023/06/04 10:57:55;;;;;;;4.00;1.50;;;;;;;;;;5031182;28;20049;-66
2023/06/04 11:00:24;;;;;;;3.80;1.27;;;;;;;;;;5030983;28;20061;-67
2023/06/04 11:02:56;;;;;;;2.25;1.15;;;;;;;;;;5030653;28;20144;-67
2023/06/04 11:05:34;;;;;;;3.45;1.23;;;;;;;;;;5030094;28;20055;-66
2023/06/04 11:08:03;;;;;;;4.13;1.50;;;;;;;;;;5031115;28;20049;-66
2023/06/04 11:10:34;;;;;;;2.30;1.55;;;;;;;;;;5030800;28;20388;-66
2023/06/04 11:13:04;;;;;;;3.05;1.25;;;;;;;;;;5030982;28;20052;-66
2023/06/04 11:15:39;;;;;;;2.75;1.10;;;;;;;;;;5029410;28;20383;-66
2023/06/04 11:18:15;;;;;;;1.73;1.00;;;;;;;;;;5030554;28;20132;-67
2023/06/04 11:20:43;;;;;;;1.88;1.20;;;;;;;;;;5030611;28;20064;-66
2023/06/04 11:23:13;;;;;;;3.03;1.30;;;;;;;;;;5022366;28;20445;-67
2023/06/04 11:25:43;;;;;;;2.22;1.15;;;;;;;;;;5029753;28;20068;-66
2023/06/04 11:28:16;;;;;;;4.63;1.13;;;;;;;;;;5030472;28;20096;-67
2023/06/04 11:30:45;;;;;;;1.80;1.10;;;;;;;;;;5030088;28;20068;-66
2023/06/04 11:33:15;;;;;;;2.20;1.10;;;;;;;;;;5033294;28;20098;-66
2023/06/04 11:35:44;;;;;;;1.92;1.10;;;;;;;;;;5032172;28;20138;-66
2023/06/04 11:38:12;;;;;;;4.45;1.58;;;;;;;;;;5030125;28;20064;-67
2023/06/04 11:40:42;;;;;;;4.28;1.50;;;;;;;;;;5029747;28;20073;-66
2023/06/04 11:43:11;;;;;;;3.60;1.55;;;;;;;;;;5029853;28;20045;-66
2023/06/04 11:45:40;;;;;;;3.60;1.52;;;;;;;;;;5029710;28;20462;-67
2023/06/04 11:48:12;;;;;;;2.28;1.13;;;;;;;;;;5030067;28;20108;-67
2023/06/04 11:50:42;;;;;;;2.67;1.38;;;;;;;;;;5028391;28;20053;-67
2023/06/04 11:53:11;;;;;;;1.88;0.98;;;;;;;;;;5029401;28;20103;-67
2023/06/04 11:55:39;;;;;;;2.78;1.65;;;;;;;;;;5029361;28;20081;-66
2023/06/04 11:58:08;;;;;;;2.90;1.50;;;;;;;;;;5030240;28;20046;-67
2023/06/04 12:00:36;;;;;;;2.13;1.30;;;;;;;;;;5030416;28;20518;-66
2023/06/04 12:03:05;;;;;;;4.22;1.70;;;;;;;;;;5017633;28;20053;-67
2023/06/04 12:05:33;;;;;;;2.38;1.33;;;;;;;;;;5029018;28;20079;-67
2023/06/04 12:08:09;;;;;;;2.15;1.42;;;;;;;;;;5023434;28;20056;-66
2023/06/04 12:10:40;;;;;;;2.38;1.17;;;;;;;;;;5029687;28;20050;-67
2023/06/04 12:13:09;;;;;;;1.88;1.20;;;;;;;;;;5021329;28;20041;-66
2023/06/04 12:15:38;;;;;;;1.40;1.10;;;;;;;;;;5028641;28;20076;-67
2023/06/04 12:18:06;;;;;;;4.45;1.85;;;;;;;;;;5029495;28;20088;-66
2023/06/04 12:20:35;;;;;;;2.28;1.35;;;;;;;;;;5029812;28;20109;-65
2023/06/04 12:23:04;;;;;;;3.78;1.45;;;;;;;;;;5023666;28;20060;-66
2023/06/04 12:25:37;;;;;;;2.75;1.27;;;;;;;;;;5028796;28;20100;-67
2023/06/04 12:28:06;;;;;;;3.53;1.45;;;;;;;;;;5032760;28;20049;-66
2023/06/04 12:30:37;;;;;;;2.10;1.35;;;;;;;;;;5032695;28;20053;-66
2023/06/04 12:33:06;;;;;;;3.35;1.52;;;;;;;;;;5029406;28;20046;-65
2023/06/04 12:35:35;;;;;;;2.30;1.42;;;;;;;;;;5036568;28;20128;-66
2023/06/04 12:38:05;;;;;;;2.63;1.40;;;;;;;;;;5034443;28;20084;-66
2023/06/04 12:40:34;;;;;;;3.40;1.70;;;;;;;;;;5033386;28;20059;-66
2023/06/04 12:43:03;;;;;;;6.22;1.08;;;;;;;;;;5031275;28;20095;-66
2023/06/04 12:45:31;;;;;;;2.53;1.40;;;;;;;;;;5032636;28;20261;-66
2023/06/04 12:48:00;;;;;;;2.92;1.77;;;;;;;;;;5033741;28;20124;-66
2023/06/04 12:50:28;;;;;;;3.25;1.45;;;;;;;;;;5033087;28;20053;-66
2023/06/04 12:52:56;;;;;;;2.63;1.80;;;;;;;;;;5033089;28;20046;-66
2023/06/04 12:55:25;;;;;;;2.55;1.30;;;;;;;;;;5032473;28;20049;-66
2023/06/04 12:57:57;;;;;;;2.90;1.40;;;;;;;;;;5033850;28;20042;-66
2023/06/04 13:00:25;;;;;;;2.20;1.25;;;;;;;;;;5033410;28;20060;-66
2023/06/04 13:02:53;;;;;;;3.63;1.70;;;;;;;;;;5032980;28;20556;-66
2023/06/04 13:05:22;;;;;;;5.07;1.67;;;;;;;;;;5019234;28;20045;-66
2023/06/04 13:07:51;;;;;;;4.80;1.80;;;;;;;;;;5033023;28;20053;-65
2023/06/04 13:10:20;;;;;;;2.55;1.40;;;;;;;;;;5033260;28;20057;-65
2023/06/04 13:12:49;;;;;;;5.05;1.50;;;;;;;;;;5025176;28;20057;-65
2023/06/04 13:15:18;;;;;;;3.35;1.60;;;;;;;;;;5032679;28;20429;-65
2023/06/04 13:17:47;;;;;;;2.40;1.63;;;;;;;;;;5019773;28;20457;-65
2023/06/04 13:20:15;;;;;;;4.30;1.90;;;;;;;;;;5032707;28;20518;-65
2023/06/04 13:22:44;;;;;;;1.73;1.20;;;;;;;;;;5032544;28;20045;-65
2023/06/04 13:25:12;;;;;;;1.70;1.38;;;;;;;;;;5032288;28;20045;-64
2023/06/04 13:27:41;;;;;;;2.63;1.10;;;;;;;;;;5032617;28;20104;-65
2023/06/04 13:30:10;;;;;;;2.22;1.50;;;;;;;;;;5032495;28;20042;-65
2023/06/04 13:32:40;;;;;;;3.03;1.30;;;;;;;;;;5027206;28;20049;-66
2023/06/04 13:35:09;;;;;;;2.45;1.38;;;;;;;;;;5037371;28;20549;-64
2023/06/04 13:37:37;;;;;;;2.10;1.65;;;;;;;;;;5032560;28;20502;-64
2023/06/04 13:40:06;;;;;;;2.33;1.30;;;;;;;;;;5032504;28;20054;-65
2023/06/04 13:42:35;;;;;;;3.75;1.60;;;;;;;;;;5031145;28;20408;-66
2023/06/04 13:45:03;;;;;;;3.03;1.75;;;;;;;;;;5031597;28;20407;-66
2023/06/04 13:47:32;;;;;;;4.45;1.30;;;;;;;;;;5032033;28;20391;-65
2023/06/04 13:50:03;;;;;;;2.15;1.67;;;;;;;;;;5029859;28;20077;-65
2023/06/04 13:52:31;;;;;;;2.03;1.10;;;;;;;;;;5020593;28;20556;-66
2023/06/04 13:55:00;;;;;;;3.60;1.73;;;;;;;;;;5031400;28;20061;-65
2023/06/04 13:57:28;;;;;;;4.82;1.80;;;;;;;;;;5031931;28;20103;-65
2023/06/04 13:59:57;;;;;;;4.30;1.90;;;;;;;;;;5032237;28;20154;-64
2023/06/04 14:02:25;;;;;;;3.75;1.63;;;;;;;;;;5031801;28;20101;-65
2023/06/04 14:04:54;;;;;;;3.30;1.50;;;;;;;;;;5031095;28;20088;-65
2023/06/04 14:07:24;;;;;;;6.47;1.55;;;;;;;;;;5031658;28;20049;-65
2023/06/04 14:09:54;;;;;;;3.42;1.67;;;;;;;;;;5031895;28;20046;-65
2023/06/04 14:12:23;;;;;;;2.40;1.48;;;;;;;;;;5025865;28;20034;-65
2023/06/04 14:14:51;;;;;;;4.53;1.58;;;;;;;;;;5030163;28;20060;-66
2023/06/04 14:17:20;;;;;;;3.72;1.60;;;;;;;;;;5030212;28;20058;-65
2023/06/04 14:19:48;;;;;;;3.33;1.33;;;;;;;;;;5031391;28;20049;-65
2023/06/04 14:22:17;;;;;;;2.60;1.52;;;;;;;;;;5026341;28;20101;-66
2023/06/04 14:24:46;;;;;;;3.35;1.45;;;;;;;;;;5030853;28;20045;-65
2023/06/04 14:27:15;;;;;;;3.55;1.70;;;;;;;;;;5031035;28;20442;-65
2023/06/04 14:29:43;;;;;;;3.13;1.67;;;;;;;;;;5031577;28;20084;-65
2023/06/04 14:32:12;;;;;;;3.75;1.80;;;;;;;;;;5031037;28;20425;-66
2023/06/04 14:34:40;;;;;;;2.20;1.50;;;;;;;;;;5036127;28;20041;-66
2023/06/04 14:37:08;;;;;;;4.70;1.88;;;;;;;;;;5031074;28;20568;-64
2023/06/04 14:39:37;;;;;;;4.90;1.80;;;;;;;;;;5031425;28;20092;-65
2023/06/04 14:42:07;;;;;;;2.15;1.45;;;;;;;;;;5025701;28;20050;-65
2023/06/04 14:44:35;;;;;;;2.75;1.70;;;;;;;;;;5024091;28;20045;-65
2023/06/04 14:47:04;;;;;;;3.35;1.90;;;;;;;;;;5031055;28;20054;-65
2023/06/04 14:49:32;;;;;;;3.08;1.40;;;;;;;;;;5030619;28;20049;-66
2023/06/04 14:52:00;;;;;;;3.30;1.52;;;;;;;;;;5028574;28;20571;-65
2023/06/04 14:54:29;;;;;;;4.18;1.58;;;;;;;;;;5023340;28;20117;-65